createdAt,value
2023-05-09T00:02:45.614Z,100040.75
2023-05-09T00:05:47.864Z,100026.53
2023-05-09T00:08:50.052Z,100030.03
2023-05-09T00:11:52.233Z,100031.59
2023-05-09T00:14:56.726Z,100025.69
2023-05-09T00:17:59.438Z,100031.53
2023-05-09T00:21:02.487Z,100020.19
2023-05-09T00:24:05.661Z,100019.00
2023-05-09T00:27:07.856Z,100022.53
2023-05-09T00:30:10.338Z,100017.78
2023-05-09T00:33:12.635Z,100020.06
2023-05-09T00:36:14.779Z,100016.72
2023-05-09T00:39:16.951Z,100010.31
2023-05-09T00:42:19.130Z,100016.63
2023-05-09T00:45:21.301Z,100011.38
2023-05-09T00:48:23.574Z,100014.63
2023-05-09T00:51:25.951Z,100014.16
2023-05-09T00:54:28.276Z,100016.72
2023-05-09T00:57:30.536Z,100008.28
2023-05-09T01:00:32.817Z,100001.81
2023-05-09T01:03:36.177Z,100005.66
2023-05-09T01:06:47.496Z,99995.31
2023-05-09T01:10:03.017Z,99994.94
2023-05-09T01:13:35.728Z,100002.97
2023-05-09T01:16:55.166Z,99997.94
2023-05-09T01:20:11.030Z,100006.63
2023-05-09T01:23:48.437Z,100009.09
2023-05-09T01:27:05.530Z,100009.09
2023-05-09T01:30:08.512Z,100005.59
2023-05-09T01:33:13.778Z,99992.84
2023-05-09T01:36:18.073Z,99997.34
2023-05-09T01:39:21.158Z,100000.75
2023-05-09T01:42:25.963Z,99989.22
2023-05-09T01:45:28.350Z,99997.94
2023-05-09T01:48:31.868Z,99992.00
2023-05-09T01:51:35.528Z,99988.47
2023-05-09T01:54:38.521Z,99988.91
2023-05-09T01:57:40.984Z,99989.78
2023-05-09T02:00:44.272Z,99988.84
2023-05-09T02:03:50.625Z,99983.84
2023-05-09T02:06:53.822Z,99984.63
2023-05-09T02:09:56.581Z,99983.94
2023-05-09T02:12:58.869Z,99979.00
2023-05-09T02:16:01.484Z,99978.16
2023-05-09T02:19:03.746Z,99978.56
2023-05-09T02:22:06.192Z,99974.62
2023-05-09T02:25:15.239Z,99977.03
2023-05-09T02:28:18.672Z,99969.56
2023-05-09T02:31:23.316Z,99968.78
2023-05-09T02:34:25.812Z,99972.28
2023-05-09T02:37:28.314Z,99971.59
2023-05-09T02:40:31.061Z,99967.16
2023-05-09T02:43:33.351Z,99962.59
2023-05-09T02:46:35.652Z,99967.22
2023-05-09T02:49:37.875Z,99966.41
2023-05-09T02:52:41.313Z,99963.59
2023-05-09T02:55:43.660Z,99966.25
2023-05-09T02:58:51.123Z,99961.31
2023-05-09T03:01:53.486Z,99970.97
2023-05-09T03:04:56.582Z,99959.03
2023-05-09T03:07:58.721Z,99968.72
2023-05-09T03:11:01.038Z,99962.94
2023-05-09T03:14:04.139Z,99964.84
2023-05-09T03:17:06.333Z,99964.44
2023-05-09T03:20:10.368Z,99966.81
2023-05-09T03:23:12.714Z,99968.91
2023-05-09T03:26:14.922Z,99963.03
2023-05-09T03:29:17.142Z,99963.25
2023-05-09T03:32:19.336Z,99960.69
2023-05-09T03:35:21.570Z,99957.69
2023-05-09T03:38:24.436Z,99959.59
2023-05-09T03:41:26.843Z,99963.22
2023-05-09T03:44:29.030Z,99969.38
2023-05-09T03:47:31.304Z,99971.91
2023-05-09T03:50:33.501Z,99969.00
2023-05-09T03:53:35.808Z,99977.28
2023-05-09T03:56:37.965Z,99976.13
2023-05-09T03:59:40.159Z,99969.94
2023-05-09T04:02:42.849Z,99968.53
2023-05-09T04:05:45.092Z,99974.31
2023-05-09T04:08:47.293Z,99972.38
2023-05-09T04:11:49.460Z,99979.25
2023-05-09T04:14:52.197Z,99967.19
2023-05-09T04:17:54.472Z,99963.91
2023-05-09T04:20:56.728Z,99973.47
2023-05-09T04:23:58.858Z,99975.28
2023-05-09T04:27:01.189Z,99979.03
2023-05-09T04:30:03.893Z,99972.22
2023-05-09T04:33:06.339Z,99981.53
2023-05-09T04:36:09.203Z,99980.31
2023-05-09T04:39:11.411Z,99977.78
2023-05-09T04:42:13.609Z,99982.00
2023-05-09T04:45:16.189Z,99979.00
2023-05-09T04:48:18.582Z,99975.34
2023-05-09T04:51:20.831Z,99979.34
2023-05-09T04:54:22.980Z,99976.16
2023-05-09T04:57:25.177Z,99972.66
2023-05-09T05:00:27.356Z,99970.28
2023-05-09T05:03:29.499Z,99973.84
2023-05-09T05:06:31.990Z,99973.59
2023-05-09T05:09:34.188Z,99983.44
2023-05-09T05:12:36.763Z,99975.59
2023-05-09T05:15:38.940Z,99978.13
2023-05-09T05:18:41.110Z,99980.38
2023-05-09T05:21:43.316Z,99986.63
2023-05-09T05:24:45.763Z,99981.31
2023-05-09T05:27:47.908Z,99988.19
2023-05-09T05:30:50.088Z,99981.28
2023-05-09T05:33:52.346Z,99977.84
2023-05-09T05:36:54.520Z,99987.50
2023-05-09T05:39:56.799Z,99990.50
2023-05-09T05:42:59.044Z,99980.63
2023-05-09T05:46:01.369Z,99980.91
2023-05-09T05:49:04.205Z,99992.87
2023-05-09T05:52:06.438Z,99986.34
2023-05-09T05:55:09.300Z,99982.53
2023-05-09T05:58:11.681Z,99983.72
2023-05-09T06:01:14.476Z,99978.16
2023-05-09T06:04:17.021Z,99982.75
2023-05-09T06:07:19.248Z,99980.97
2023-05-09T06:10:21.518Z,99975.56
2023-05-09T06:13:23.907Z,99987.19
2023-05-09T06:16:26.449Z,99983.53
2023-05-09T06:19:28.746Z,99979.03
2023-05-09T06:22:31.013Z,99990.78
2023-05-09T06:25:33.221Z,99989.81
2023-05-09T06:28:35.404Z,99988.97
2023-05-09T06:31:39.095Z,99995.72
2023-05-09T06:34:42.141Z,99986.41
2023-05-09T06:37:45.511Z,99985.47
2023-05-09T06:40:49.249Z,99974.59
2023-05-09T06:43:52.406Z,99972.06
2023-05-09T06:46:54.621Z,99980.53
2023-05-09T06:49:56.772Z,99980.53
2023-05-09T06:52:58.969Z,99977.19
2023-05-09T06:56:01.183Z,99970.03
2023-05-09T06:59:03.433Z,99980.25
2023-05-09T07:02:05.815Z,99977.31
2023-05-09T07:05:09.825Z,99960.72
2023-05-09T07:08:12.093Z,99977.66
2023-05-09T07:11:14.263Z,99956.94
2023-05-09T07:14:16.487Z,99953.88
2023-05-09T07:17:23.413Z,99962.63
2023-05-09T07:20:26.284Z,99961.66
2023-05-09T07:23:28.505Z,99943.84
2023-05-09T07:26:30.685Z,99939.75
2023-05-09T07:29:32.868Z,99946.50
2023-05-09T07:32:35.746Z,99946.56
2023-05-09T07:35:38.031Z,99933.00
2023-05-09T07:38:40.707Z,99947.78
2023-05-09T07:41:43.168Z,99932.56
2023-05-09T07:44:45.636Z,99941.00
2023-05-09T07:47:47.910Z,99942.94
2023-05-09T07:50:50.292Z,99935.19
2023-05-09T07:53:52.520Z,99945.44
2023-05-09T07:56:54.823Z,99942.63
2023-05-09T07:59:57.144Z,99931.94
2023-05-09T08:02:59.581Z,99927.75
2023-05-09T08:06:01.996Z,99914.94
2023-05-09T08:09:04.782Z,99928.78
2023-05-09T08:12:07.345Z,99922.63
2023-05-09T08:15:09.995Z,99926.13
2023-05-09T08:18:12.307Z,99918.03
2023-05-09T08:21:14.531Z,99916.38
2023-05-09T08:24:16.698Z,99907.41
2023-05-09T08:27:18.904Z,99900.22
2023-05-09T08:30:21.148Z,99906.78
2023-05-09T08:33:23.597Z,99908.50
2023-05-09T08:36:25.812Z,99909.84
2023-05-09T08:39:28.018Z,99909.47
2023-05-09T08:42:31.208Z,99900.91
2023-05-09T08:45:35.811Z,99902.28
2023-05-09T08:48:38.304Z,99912.53
2023-05-09T08:51:41.091Z,99921.78
2023-05-09T08:54:43.342Z,99917.59
2023-05-09T08:57:45.944Z,99908.97
2023-05-09T09:00:50.290Z,99898.84
2023-05-09T09:03:52.583Z,99901.28
2023-05-09T09:06:55.555Z,99903.94
2023-05-09T09:09:57.913Z,99893.09
2023-05-09T09:13:01.236Z,99894.41
2023-05-09T09:16:04.016Z,99889.38
2023-05-09T09:19:10.241Z,99875.97
2023-05-09T09:22:15.994Z,99885.66
2023-05-09T09:25:18.280Z,99885.75
2023-05-09T09:28:20.971Z,99886.78
2023-05-09T09:31:28.562Z,99886.87
2023-05-09T09:34:30.881Z,99885.50
2023-05-09T09:37:37.060Z,99901.44
2023-05-09T09:40:40.616Z,99875.97
2023-05-09T09:43:46.209Z,99882.75
2023-05-09T09:46:50.383Z,99884.41
2023-05-09T09:49:52.741Z,99873.53
2023-05-09T09:52:56.532Z,99873.09
2023-05-09T09:55:58.952Z,99881.38
2023-05-09T09:59:12.527Z,99873.28
2023-05-09T10:02:14.698Z,99889.72
2023-05-09T10:05:20.522Z,99877.66
2023-05-09T10:08:22.674Z,99874.59
2023-05-09T10:11:24.843Z,99862.81
2023-05-09T10:14:27.147Z,99863.50
2023-05-09T10:17:31.910Z,99871.13
2023-05-09T10:20:35.148Z,99853.34
2023-05-09T10:23:38.092Z,99855.38
2023-05-09T10:26:42.901Z,99866.84
2023-05-09T10:29:52.189Z,99857.88
2023-05-09T10:32:59.538Z,99856.47
2023-05-09T10:36:03.485Z,99866.34
2023-05-09T10:39:06.459Z,99848.69
2023-05-09T10:42:09.298Z,99843.75
2023-05-09T10:45:12.781Z,99845.19
2023-05-09T10:48:15.227Z,99849.66
2023-05-09T10:51:17.914Z,99865.44
2023-05-09T10:54:32.428Z,99847.16
2023-05-09T10:57:39.326Z,99831.44
2023-05-09T11:00:42.417Z,99840.19
2023-05-09T11:03:56.125Z,99855.56
2023-05-09T11:06:59.994Z,99837.12
2023-05-09T11:10:17.760Z,99833.41
2023-05-09T11:13:23.511Z,99829.84
2023-05-09T11:16:26.549Z,99841.81
2023-05-09T11:20:03.673Z,99842.44
2023-05-09T11:23:06.901Z,99836.06
2023-05-09T11:26:09.422Z,99826.03
2023-05-09T11:29:12.364Z,99815.69
2023-05-09T11:32:15.867Z,99813.97
2023-05-09T11:35:21.090Z,99807.53
2023-05-09T11:38:23.408Z,99801.47
2023-05-09T11:41:27.106Z,99807.84
2023-05-09T11:44:31.744Z,99806.88
2023-05-09T11:47:36.113Z,99804.66
2023-05-09T11:50:38.390Z,99804.81
2023-05-09T11:53:46.728Z,99787.16
2023-05-09T11:56:48.915Z,99789.75
2023-05-09T11:59:51.121Z,99803.91
2023-05-09T12:02:53.796Z,99798.50
2023-05-09T12:05:56.376Z,99797.34
2023-05-09T12:08:58.634Z,99790.28
2023-05-09T12:12:01.465Z,99781.44
2023-05-09T12:15:07.025Z,99780.25
2023-05-09T12:18:09.362Z,99782.97
2023-05-09T12:21:12.210Z,99766.28
2023-05-09T12:24:16.188Z,99769.59
2023-05-09T12:27:18.817Z,99763.91
2023-05-09T12:30:20.960Z,99774.88
2023-05-09T12:33:23.727Z,99774.94
2023-05-09T12:36:26.394Z,99764.06
2023-05-09T12:39:28.610Z,99759.84
2023-05-09T12:42:32.201Z,99767.06
2023-05-09T12:45:34.447Z,99765.53
2023-05-09T12:48:39.656Z,99760.25
2023-05-09T12:51:51.455Z,99751.56
2023-05-09T12:54:54.407Z,99750.53
2023-05-09T12:57:58.945Z,99743.50
2023-05-09T13:01:03.919Z,99757.03
2023-05-09T13:04:07.443Z,99731.22
2023-05-09T13:07:13.135Z,99731.94
2023-05-09T13:10:27.450Z,99725.06
2023-05-09T13:13:29.759Z,99727.50
2023-05-09T13:16:32.191Z,99725.63
2023-05-09T13:19:39.365Z,99722.47
2023-05-09T13:22:41.829Z,99716.59
2023-05-09T13:25:44.216Z,99708.31
2023-05-09T13:28:46.461Z,99713.84
2023-05-09T13:31:48.635Z,99719.13
2023-05-09T13:34:53.976Z,99717.34
2023-05-09T13:37:58.178Z,99710.53
2023-05-09T13:41:00.468Z,99717.66
2023-05-09T13:44:02.697Z,99706.34
2023-05-09T13:47:07.669Z,99707.62
2023-05-09T13:50:10.575Z,99705.81
2023-05-09T13:53:12.943Z,99704.31
2023-05-09T13:56:15.175Z,99711.41
2023-05-09T13:59:17.628Z,99703.06
2023-05-09T14:02:19.821Z,99689.94
2023-05-09T14:05:22.859Z,99677.69
2023-05-09T14:08:25.139Z,99690.50
2023-05-09T14:11:27.734Z,99675.94
2023-05-09T14:14:29.988Z,99665.25
2023-05-09T14:17:32.337Z,99657.94
2023-05-09T14:20:37.776Z,99661.22
2023-05-09T14:23:39.987Z,99672.81
2023-05-09T14:26:42.242Z,99665.09
2023-05-09T14:29:44.412Z,99663.94
2023-05-09T14:32:47.069Z,99663.78
2023-05-09T14:35:49.742Z,99682.16
2023-05-09T14:38:52.770Z,99661.47
2023-05-09T14:41:56.347Z,99659.59
2023-05-09T14:44:59.207Z,99648.53
2023-05-09T14:48:03.979Z,99648.50
2023-05-09T14:51:06.488Z,99650.81
2023-05-09T14:54:09.713Z,99660.00
2023-05-09T14:57:12.626Z,99649.59
2023-05-09T15:00:21.093Z,99646.66
2023-05-09T15:03:24.284Z,99647.56
2023-05-09T15:06:26.771Z,99639.62
2023-05-09T15:09:29.011Z,99635.66
2023-05-09T15:12:31.530Z,99633.38
2023-05-09T15:15:33.973Z,99631.78
2023-05-09T15:18:36.242Z,99631.00
2023-05-09T15:21:38.652Z,99629.25
2023-05-09T15:24:44.623Z,99627.44
2023-05-09T15:27:46.960Z,99621.94
2023-05-09T15:30:49.330Z,99618.31
2023-05-09T15:33:51.769Z,99614.09
2023-05-09T15:36:54.021Z,99619.37
2023-05-09T15:39:56.190Z,99610.59
2023-05-09T15:42:59.686Z,99607.75
2023-05-09T15:46:02.478Z,99593.34
2023-05-09T15:49:04.754Z,99591.00
2023-05-09T15:52:07.968Z,99597.34
2023-05-09T15:55:11.011Z,99591.88
2023-05-09T15:58:16.784Z,99593.62
2023-05-09T16:01:19.639Z,99594.72
2023-05-09T16:04:22.224Z,99586.00
2023-05-09T16:07:26.791Z,99575.53
2023-05-09T16:10:28.972Z,99575.06
2023-05-09T16:13:31.970Z,99573.44
2023-05-09T16:16:36.651Z,99571.00
2023-05-09T16:19:38.915Z,99584.03
2023-05-09T16:22:41.681Z,99576.09
2023-05-09T16:25:44.994Z,99576.13
2023-05-09T16:28:47.260Z,99579.97
2023-05-09T16:31:49.847Z,99582.31
2023-05-09T16:34:52.088Z,99582.91
2023-05-09T16:37:54.445Z,99581.37
2023-05-09T16:40:56.719Z,99572.66
2023-05-09T16:43:59.056Z,99570.19
2023-05-09T16:47:01.437Z,99565.06
2023-05-09T16:50:04.776Z,99557.16
2023-05-09T16:53:07.009Z,99554.81
2023-05-09T16:56:11.043Z,99556.78
2023-05-09T16:59:13.396Z,99554.00
2023-05-09T17:02:15.580Z,99556.91
2023-05-09T17:05:17.921Z,99561.56
2023-05-09T17:08:20.140Z,99555.03
2023-05-09T17:11:22.774Z,99549.69
2023-05-09T17:14:24.977Z,99545.59
2023-05-09T17:17:27.514Z,99544.31
2023-05-09T17:20:30.039Z,99544.37
2023-05-09T17:23:32.532Z,99549.59
2023-05-09T17:26:35.059Z,99546.22
2023-05-09T17:29:37.298Z,99546.66
2023-05-09T17:32:41.513Z,99546.06
2023-05-09T17:35:43.880Z,99544.06
2023-05-09T17:38:46.092Z,99544.78
2023-05-09T17:41:48.373Z,99540.22
2023-05-09T17:44:51.028Z,99544.53
2023-05-09T17:47:54.365Z,99544.91
2023-05-09T17:50:56.900Z,99537.69
2023-05-09T17:53:59.165Z,99545.84
2023-05-09T17:57:02.244Z,99535.13
2023-05-09T18:00:07.966Z,99530.25
2023-05-09T18:03:10.337Z,99541.41
2023-05-09T18:06:12.812Z,99536.59
2023-05-09T18:09:15.232Z,99541.34
2023-05-09T18:12:17.405Z,99541.50
2023-05-09T18:15:19.807Z,99538.19
2023-05-09T18:18:23.005Z,99535.81
2023-05-09T18:21:28.203Z,99537.22
2023-05-09T18:24:30.476Z,99544.03
2023-05-09T18:27:32.738Z,99542.72
2023-05-09T18:30:36.250Z,99543.97
2023-05-09T18:33:42.856Z,99550.84
2023-05-09T18:36:45.108Z,99553.25
2023-05-09T18:39:48.839Z,99551.50
2023-05-09T18:42:51.190Z,99549.53
2023-05-09T18:45:54.288Z,99555.69
2023-05-09T18:48:56.508Z,99561.47
2023-05-09T18:52:00.206Z,99553.09
2023-05-09T18:55:02.746Z,99559.91
2023-05-09T18:58:04.988Z,99555.41
2023-05-09T19:01:11.460Z,99554.62
2023-05-09T19:04:17.230Z,99560.19
2023-05-09T19:07:19.678Z,99570.66
2023-05-09T19:10:22.087Z,99561.00
2023-05-09T19:13:24.439Z,99555.69
2023-05-09T19:16:27.095Z,99556.72
2023-05-09T19:19:29.922Z,99564.13
2023-05-09T19:22:32.403Z,99565.22
2023-05-09T19:25:36.985Z,99567.44
2023-05-09T19:28:39.238Z,99566.69
2023-05-09T19:31:41.564Z,99565.69
2023-05-09T19:34:44.038Z,99564.69
2023-05-09T19:37:46.495Z,99565.16
2023-05-09T19:40:48.980Z,99562.31
2023-05-09T19:43:54.583Z,99566.66
2023-05-09T19:46:58.526Z,99565.47
2023-05-09T19:50:02.094Z,99565.47
2023-05-09T19:53:04.664Z,99572.25
2023-05-09T19:56:08.190Z,99566.94
2023-05-09T19:59:10.674Z,99566.97
2023-05-09T20:02:13.120Z,99568.84
2023-05-09T20:05:15.518Z,99563.91
2023-05-09T20:08:17.697Z,99560.22
2023-05-09T20:11:21.027Z,99559.22
2023-05-09T20:14:23.176Z,99557.94
2023-05-09T20:17:25.510Z,99556.50
2023-05-09T20:20:27.953Z,99554.47
2023-05-09T20:23:31.112Z,99555.69
2023-05-09T20:26:33.590Z,99551.81
2023-05-09T20:29:36.208Z,99559.56
2023-05-09T20:32:38.452Z,99554.66
2023-05-09T20:35:43.214Z,99550.59
2023-05-09T20:38:45.755Z,99551.59
2023-05-09T20:41:48.519Z,99546.09
2023-05-09T20:44:51.583Z,99554.06
2023-05-09T20:47:54.102Z,99544.84
2023-05-09T20:50:56.318Z,99543.63
2023-05-09T20:53:58.878Z,99542.97
2023-05-09T20:57:01.024Z,99538.06
2023-05-09T21:00:03.939Z,99540.94
2023-05-09T21:03:06.486Z,99534.38
2023-05-09T21:06:08.848Z,99537.06
2023-05-09T21:09:11.291Z,99537.47
2023-05-09T21:12:13.612Z,99531.72
2023-05-09T21:15:15.888Z,99522.53
2023-05-09T21:18:18.818Z,99525.38
2023-05-09T21:21:21.036Z,99526.81
2023-05-09T21:24:23.200Z,99522.28
2023-05-09T21:27:25.367Z,99524.34
2023-05-09T21:30:27.584Z,99527.41
2023-05-09T21:33:29.795Z,99523.53
2023-05-09T21:36:31.992Z,99529.25
2023-05-09T21:39:34.139Z,99523.53
2023-05-09T21:42:37.376Z,99519.84
2023-05-09T21:45:40.126Z,99522.50
2023-05-09T21:48:42.309Z,99522.50
2023-05-09T21:51:44.533Z,99519.63
2023-05-09T21:54:46.746Z,99510.84
2023-05-09T21:57:48.963Z,99516.34
2023-05-09T22:00:51.169Z,99520.84
2023-05-09T22:03:53.574Z,99510.00
2023-05-09T22:06:55.969Z,99516.16
2023-05-09T22:09:58.209Z,99516.75
2023-05-09T22:13:00.451Z,99511.59
2023-05-09T22:16:03.784Z,99506.91
2023-05-09T22:19:06.434Z,99509.78
2023-05-09T22:22:08.610Z,99509.16
2023-05-09T22:25:10.882Z,99507.94
2023-05-09T22:28:13.066Z,99505.91
2023-05-09T22:31:15.268Z,99508.19
2023-05-09T22:34:17.470Z,99499.38
2023-05-09T22:37:19.831Z,99503.25
2023-05-09T22:40:22.014Z,99503.88
2023-05-09T22:43:25.395Z,99503.06
2023-05-09T22:46:30.874Z,99505.72
2023-05-09T22:49:33.763Z,99502.25
2023-05-09T22:52:35.957Z,99497.13
2023-05-09T22:55:38.748Z,99497.75
2023-05-09T22:58:40.921Z,99495.50
2023-05-09T23:01:43.153Z,99501.22
2023-05-09T23:04:45.400Z,99500.19
2023-05-09T23:07:47.737Z,99497.72
2023-05-09T23:10:49.967Z,99498.72
2023-05-09T23:13:52.252Z,99494.62
2023-05-09T23:16:54.459Z,99486.25
2023-05-09T23:19:56.653Z,99489.09
2023-05-09T23:22:58.916Z,99490.34
2023-05-09T23:26:01.099Z,99474.19
2023-05-09T23:29:03.310Z,99487.06
2023-05-09T23:32:06.027Z,99479.75
2023-05-09T23:35:08.535Z,99486.50
2023-05-09T23:38:10.722Z,99484.63
2023-05-09T23:41:13.020Z,99484.63
2023-05-09T23:44:15.223Z,99480.09
2023-05-09T23:47:17.500Z,99479.50
2023-05-09T23:50:19.765Z,99471.91
2023-05-09T23:53:22.041Z,99472.12
2023-05-09T23:56:25.295Z,99470.44
2023-05-09T23:59:27.627Z,99468.19
